sensor_id;sensor_type;location;lat;lon;timestamp;pressure;altitude;pressure_sealevel;temperature;humidity
17855;BME280;9053;53.358;6.382;2024-01-25T00:00:54;102381.97;;;8.94;96.10
17855;BME280;9053;53.358;6.382;2024-01-25T00:03:24;102382.47;;;8.88;96.14
17855;BME280;9053;53.358;6.382;2024-01-25T00:05:54;102392.06;;;8.87;96.09
17855;BME280;9053;53.358;6.382;2024-01-25T00:08:27;102385.91;;;8.87;96.22
17855;BME280;9053;53.358;6.382;2024-01-25T00:10:57;102386.63;;;8.84;96.27
17855;BME280;9053;53.358;6.382;2024-01-25T00:13:27;102389.13;;;8.83;96.35
17855;BME280;9053;53.358;6.382;2024-01-25T00:15:57;102379.44;;;8.82;96.35
17855;BME280;9053;53.358;6.382;2024-01-25T00:18:27;102375.72;;;8.78;96.31
17855;BME280;9053;53.358;6.382;2024-01-25T00:20:58;102385.13;;;8.75;96.50
17855;BME280;9053;53.358;6.382;2024-01-25T00:23:31;102380.47;;;8.71;96.65
17855;BME280;9053;53.358;6.382;2024-01-25T00:26:02;102375.31;;;8.72;96.61
17855;BME280;9053;53.358;6.382;2024-01-25T00:28:32;102387.50;;;8.72;96.66
17855;BME280;9053;53.358;6.382;2024-01-25T00:31:02;102385.41;;;8.66;96.70
17855;BME280;9053;53.358;6.382;2024-01-25T00:33:32;102396.72;;;8.65;96.85
17855;BME280;9053;53.358;6.382;2024-01-25T00:36:03;102392.16;;;8.62;96.92
17855;BME280;9053;53.358;6.382;2024-01-25T00:38:37;102385.19;;;8.63;97.12
17855;BME280;9053;53.358;6.382;2024-01-25T00:41:08;102394.78;;;8.62;97.18
17855;BME280;9053;53.358;6.382;2024-01-25T00:43:39;102395.81;;;8.64;97.22
17855;BME280;9053;53.358;6.382;2024-01-25T00:46:10;102391.34;;;8.63;97.22
17855;BME280;9053;53.358;6.382;2024-01-25T00:48:40;102397.28;;;8.61;97.24
17855;BME280;9053;53.358;6.382;2024-01-25T00:51:15;102399.13;;;8.62;97.31
17855;BME280;9053;53.358;6.382;2024-01-25T00:53:48;102397.41;;;8.62;97.29
17855;BME280;9053;53.358;6.382;2024-01-25T00:56:19;102399.13;;;8.62;97.36
17855;BME280;9053;53.358;6.382;2024-01-25T00:58:50;102395.50;;;8.60;97.42
17855;BME280;9053;53.358;6.382;2024-01-25T01:01:21;102398.91;;;8.59;97.37
17855;BME280;9053;53.358;6.382;2024-01-25T01:03:55;102400.53;;;8.57;97.48
17855;BME280;9053;53.358;6.382;2024-01-25T01:06:28;102412.84;;;8.58;97.50
17855;BME280;9053;53.358;6.382;2024-01-25T01:09:01;102406.50;;;8.54;97.60
17855;BME280;9053;53.358;6.382;2024-01-25T01:11:31;102415.16;;;8.53;97.55
17855;BME280;9053;53.358;6.382;2024-01-25T01:14:01;102400.13;;;8.51;97.69
17855;BME280;9053;53.358;6.382;2024-01-25T01:16:31;102409.69;;;8.50;97.78
17855;BME280;9053;53.358;6.382;2024-01-25T01:19:03;102409.69;;;8.50;97.97
17855;BME280;9053;53.358;6.382;2024-01-25T01:21:35;102423.72;;;8.51;97.99
17855;BME280;9053;53.358;6.382;2024-01-25T01:24:08;102422.81;;;8.50;98.05
17855;BME280;9053;53.358;6.382;2024-01-25T01:26:38;102421.78;;;8.48;98.17
17855;BME280;9053;53.358;6.382;2024-01-25T01:29:08;102421.91;;;8.50;98.28
17855;BME280;9053;53.358;6.382;2024-01-25T01:31:38;102435.72;;;8.47;98.42
17855;BME280;9053;53.358;6.382;2024-01-25T01:34:08;102420.78;;;8.46;98.50
17855;BME280;9053;53.358;6.382;2024-01-25T01:36:39;102437.31;;;8.45;98.57
17855;BME280;9053;53.358;6.382;2024-01-25T01:39:13;102447.91;;;8.47;98.66
17855;BME280;9053;53.358;6.382;2024-01-25T01:41:46;102455.56;;;8.43;98.59
17855;BME280;9053;53.358;6.382;2024-01-25T01:44:18;102462.31;;;8.40;98.85
17855;BME280;9053;53.358;6.382;2024-01-25T01:46:48;102464.94;;;8.40;98.93
17855;BME280;9053;53.358;6.382;2024-01-25T01:49:18;102463.00;;;8.37;98.98
17855;BME280;9053;53.358;6.382;2024-01-25T01:51:49;102465.63;;;8.37;99.16
17855;BME280;9053;53.358;6.382;2024-01-25T01:54:22;102464.47;;;8.34;99.23
17855;BME280;9053;53.358;6.382;2024-01-25T01:56:52;102475.91;;;8.34;99.43
17855;BME280;9053;53.358;6.382;2024-01-25T01:59:23;102479.41;;;8.35;99.50
17855;BME280;9053;53.358;6.382;2024-01-25T02:01:53;102474.88;;;8.32;99.56
17855;BME280;9053;53.358;6.382;2024-01-25T02:04:26;102470.53;;;8.33;99.74
17855;BME280;9053;53.358;6.382;2024-01-25T02:06:56;102469.72;;;8.34;99.83
17855;BME280;9053;53.358;6.382;2024-01-25T02:09:29;102477.59;;;8.34;99.77
17855;BME280;9053;53.358;6.382;2024-01-25T02:12:00;102479.22;;;8.32;99.95
17855;BME280;9053;53.358;6.382;2024-01-25T02:14:30;102473.84;;;8.30;100.00
17855;BME280;9053;53.358;6.382;2024-01-25T02:17:00;102485.38;;;8.32;100.00
17855;BME280;9053;53.358;6.382;2024-01-25T02:19:30;102488.75;;;8.31;100.00
17855;BME280;9053;53.358;6.382;2024-01-25T02:22:01;102491.38;;;8.31;100.00
17855;BME280;9053;53.358;6.382;2024-01-25T02:24:37;102485.25;;;8.31;100.00
17855;BME280;9053;53.358;6.382;2024-01-25T02:27:08;102491.19;;;8.28;100.00
17855;BME280;9053;53.358;6.382;2024-01-25T02:29:38;102498.97;;;8.27;100.00
17855;BME280;9053;53.358;6.382;2024-01-25T02:32:07;102506.13;;;8.29;100.00
17855;BME280;9053;53.358;6.382;2024-01-25T02:34:38;102500.75;;;8.28;100.00
17855;BME280;9053;53.358;6.382;2024-01-25T02:37:08;102501.59;;;8.27;100.00
17855;BME280;9053;53.358;6.382;2024-01-25T02:39:42;102497.13;;;8.26;100.00
17855;BME280;9053;53.358;6.382;2024-01-25T02:42:12;102506.00;;;8.28;100.00
17855;BME280;9053;53.358;6.382;2024-01-25T02:44:43;102514.78;;;8.28;100.00
17855;BME280;9053;53.358;6.382;2024-01-25T02:47:19;102515.69;;;8.29;100.00
17855;BME280;9053;53.358;6.382;2024-01-25T02:49:49;102527.88;;;8.28;100.00
17855;BME280;9053;53.358;6.382;2024-01-25T02:52:19;102519.94;;;8.27;100.00
17855;BME280;9053;53.358;6.382;2024-01-25T02:54:51;102508.41;;;8.24;100.00
17855;BME280;9053;53.358;6.382;2024-01-25T02:57:22;102510.16;;;8.24;100.00
17855;BME280;9053;53.358;6.382;2024-01-25T02:59:52;102514.25;;;8.20;100.00
17855;BME280;9053;53.358;6.382;2024-01-25T03:02:22;102517.69;;;8.19;100.00
17855;BME280;9053;53.358;6.382;2024-01-25T03:04:52;102521.91;;;8.17;100.00
17855;BME280;9053;53.358;6.382;2024-01-25T03:07:22;102515.63;;;8.15;100.00
17855;BME280;9053;53.358;6.382;2024-01-25T03:09:54;102520.88;;;8.15;100.00
17855;BME280;9053;53.358;6.382;2024-01-25T03:12:24;102523.38;;;8.14;100.00
17855;BME280;9053;53.358;6.382;2024-01-25T03:14:52;102530.34;;;8.13;100.00
17855;BME280;9053;53.358;6.382;2024-01-25T03:17:21;102529.09;;;8.08;100.00
17855;BME280;9053;53.358;6.382;2024-01-25T03:19:52;102541.41;;;8.09;100.00
17855;BME280;9053;53.358;6.382;2024-01-25T03:22:22;102539.59;;;8.08;100.00
17855;BME280;9053;53.358;6.382;2024-01-25T03:24:56;102548.13;;;8.06;100.00
17855;BME280;9053;53.358;6.382;2024-01-25T03:27:26;102544.41;;;8.02;100.00
17855;BME280;9053;53.358;6.382;2024-01-25T03:29:55;102545.09;;;7.99;100.00
17855;BME280;9053;53.358;6.382;2024-01-25T03:32:26;102544.06;;;7.97;100.00
17855;BME280;9053;53.358;6.382;2024-01-25T03:34:58;102550.22;;;7.98;100.00
17855;BME280;9053;53.358;6.382;2024-01-25T03:37:28;102558.06;;;7.98;100.00
17855;BME280;9053;53.358;6.382;2024-01-25T03:40:01;102559.66;;;7.96;100.00
17855;BME280;9053;53.358;6.382;2024-01-25T03:42:31;102550.13;;;7.96;100.00
17855;BME280;9053;53.358;6.382;2024-01-25T03:45:02;102544.63;;;7.93;100.00
17855;BME280;9053;53.358;6.382;2024-01-25T03:47:33;102547.16;;;7.92;100.00
17855;BME280;9053;53.358;6.382;2024-01-25T03:50:06;102545.31;;;7.91;100.00
17855;BME280;9053;53.358;6.382;2024-01-25T03:52:36;102543.31;;;7.87;100.00
17855;BME280;9053;53.358;6.382;2024-01-25T03:55:09;102544.91;;;7.85;100.00
17855;BME280;9053;53.358;6.382;2024-01-25T03:57:39;102552.88;;;7.86;100.00
17855;BME280;9053;53.358;6.382;2024-01-25T04:00:10;102552.63;;;7.83;100.00
17855;BME280;9053;53.358;6.382;2024-01-25T04:02:40;102551.72;;;7.83;100.00
17855;BME280;9053;53.358;6.382;2024-01-25T04:05:11;102546.28;;;7.79;100.00
17855;BME280;9053;53.358;6.382;2024-01-25T04:07:41;102538.22;;;7.76;100.00
17855;BME280;9053;53.358;6.382;2024-01-25T04:10:13;102538.22;;;7.76;100.00
17855;BME280;9053;53.358;6.382;2024-01-25T04:12:43;102549.47;;;7.75;100.00
17855;BME280;9053;53.358;6.382;2024-01-25T04:15:13;102555.38;;;7.73;100.00
17855;BME280;9053;53.358;6.382;2024-01-25T04:17:43;102552.69;;;7.71;100.00
17855;BME280;9053;53.358;6.382;2024-01-25T04:20:14;102550.06;;;7.71;100.00
17855;BME280;9053;53.358;6.382;2024-01-25T04:22:45;102541.19;;;7.69;100.00
17855;BME280;9053;53.358;6.382;2024-01-25T04:25:18;102553.38;;;7.69;100.00
17855;BME280;9053;53.358;6.382;2024-01-25T04:27:48;102549.03;;;7.69;100.00
17855;BME280;9053;53.358;6.382;2024-01-25T04:30:18;102541.97;;;7.68;100.00
17855;BME280;9053;53.358;6.382;2024-01-25T04:32:48;102549.03;;;7.69;100.00
17855;BME280;9053;53.358;6.382;2024-01-25T04:35:18;102548.91;;;7.68;100.00
17855;BME280;9053;53.358;6.382;2024-01-25T04:37:48;102555.88;;;7.67;100.00
17855;BME280;9053;53.358;6.382;2024-01-25T04:40:21;102553.94;;;7.65;100.00
17855;BME280;9053;53.358;6.382;2024-01-25T04:42:52;102562.59;;;7.64;100.00
17855;BME280;9053;53.358;6.382;2024-01-25T04:45:21;102566.81;;;7.62;100.00
17855;BME280;9053;53.358;6.382;2024-01-25T04:47:55;102568.28;;;7.58;100.00
17855;BME280;9053;53.358;6.382;2024-01-25T04:50:25;102567.97;;;7.53;100.00
17855;BME280;9053;53.358;6.382;2024-01-25T04:52:55;102570.31;;;7.50;100.00
17855;BME280;9053;53.358;6.382;2024-01-25T04:55:29;102579.22;;;7.52;100.00
17855;BME280;9053;53.358;6.382;2024-01-25T04:57:58;102587.75;;;7.50;100.00
17855;BME280;9053;53.358;6.382;2024-01-25T05:00:28;102589.47;;;7.49;100.00
17855;BME280;9053;53.358;6.382;2024-01-25T05:02:59;102585.94;;;7.49;100.00
17855;BME280;9053;53.358;6.382;2024-01-25T05:05:29;102590.94;;;7.46;100.00
17855;BME280;9053;53.358;6.382;2024-01-25T05:07:59;102598.00;;;7.47;100.00
17855;BME280;9053;53.358;6.382;2024-01-25T05:10:32;102600.63;;;7.47;100.00
17855;BME280;9053;53.358;6.382;2024-01-25T05:13:04;102609.16;;;7.44;100.00
17855;BME280;9053;53.358;6.382;2024-01-25T05:15:34;102602.88;;;7.42;100.00
17855;BME280;9053;53.358;6.382;2024-01-25T05:18:04;102612.47;;;7.42;100.00
17855;BME280;9053;53.358;6.382;2024-01-25T05:20:35;102613.22;;;7.41;100.00
17855;BME280;9053;53.358;6.382;2024-01-25T05:23:05;102614.94;;;7.40;100.00
17855;BME280;9053;53.358;6.382;2024-01-25T05:25:38;102620.19;;;7.40;100.00
17855;BME280;9053;53.358;6.382;2024-01-25T05:28:08;102621.91;;;7.40;100.00
17855;BME280;9053;53.358;6.382;2024-01-25T05:30:38;102626.91;;;7.36;100.00
17855;BME280;9053;53.358;6.382;2024-01-25T05:33:08;102626.91;;;7.36;100.00
17855;BME280;9053;53.358;6.382;2024-01-25T05:35:38;102615.63;;;7.37;100.00
17855;BME280;9053;53.358;6.382;2024-01-25T05:38:08;102625.06;;;7.35;100.00
17855;BME280;9053;53.358;6.382;2024-01-25T05:40:40;102628.50;;;7.34;100.00
17855;BME280;9053;53.358;6.382;2024-01-25T05:43:10;102620.41;;;7.31;100.00
17855;BME280;9053;53.358;6.382;2024-01-25T05:45:46;102622.00;;;7.29;100.00
17855;BME280;9053;53.358;6.382;2024-01-25T05:48:16;102628.13;;;7.30;100.00
17855;BME280;9053;53.358;6.382;2024-01-25T05:50:46;102633.28;;;7.28;100.00
17855;BME280;9053;53.358;6.382;2024-01-25T05:53:16;102618.00;;;7.23;100.00
17855;BME280;9053;53.358;6.382;2024-01-25T05:55:49;102641.31;;;7.20;100.00
17855;BME280;9053;53.358;6.382;2024-01-25T05:58:19;102655.09;;;7.17;100.00
17855;BME280;9053;53.358;6.382;2024-01-25T06:00:49;102656.56;;;7.13;100.00
17855;BME280;9053;53.358;6.382;2024-01-25T06:03:20;102659.19;;;7.13;100.00
17855;BME280;9053;53.358;6.382;2024-01-25T06:05:50;102653.03;;;7.13;100.00
17855;BME280;9053;53.358;6.382;2024-01-25T06:08:20;102645.16;;;7.13;100.00
17855;BME280;9053;53.358;6.382;2024-01-25T06:10:53;102651.88;;;7.09;100.00
17855;BME280;9053;53.358;6.382;2024-01-25T06:13:23;102646.44;;;7.06;100.00
17855;BME280;9053;53.358;6.382;2024-01-25T06:15:53;102633.00;;;7.02;100.00
17855;BME280;9053;53.358;6.382;2024-01-25T06:18:23;102639.94;;;7.01;100.00
17855;BME280;9053;53.358;6.382;2024-01-25T06:20:53;102643.22;;;6.99;100.00
17855;BME280;9053;53.358;6.382;2024-01-25T06:23:23;102649.22;;;6.98;100.00
17855;BME280;9053;53.358;6.382;2024-01-25T06:25:56;102660.50;;;6.97;100.00
17855;BME280;9053;53.358;6.382;2024-01-25T06:28:26;102659.38;;;6.93;100.00
17855;BME280;9053;53.358;6.382;2024-01-25T06:30:56;102675.72;;;6.90;100.00
17855;BME280;9053;53.358;6.382;2024-01-25T06:33:26;102675.25;;;6.84;100.00
17855;BME280;9053;53.358;6.382;2024-01-25T06:35:57;102685.56;;;6.83;100.00
17855;BME280;9053;53.358;6.382;2024-01-25T06:38:27;102678.38;;;6.80;100.00
17855;BME280;9053;53.358;6.382;2024-01-25T06:41:00;102679.19;;;6.79;100.00
17855;BME280;9053;53.358;6.382;2024-01-25T06:43:33;102688.75;;;6.79;100.00
17855;BME280;9053;53.358;6.382;2024-01-25T06:46:03;102692.03;;;6.76;100.00
17855;BME280;9053;53.358;6.382;2024-01-25T06:48:35;102689.41;;;6.76;100.00
17855;BME280;9053;53.358;6.382;2024-01-25T06:51:06;102686.81;;;6.76;100.00
17855;BME280;9053;53.358;6.382;2024-01-25T06:53:36;102681.81;;;6.79;100.00
17855;BME280;9053;53.358;6.382;2024-01-25T06:56:09;102677.63;;;6.81;100.00
17855;BME280;9053;53.358;6.382;2024-01-25T06:58:39;102682.03;;;6.82;100.00
17855;BME280;9053;53.358;6.382;2024-01-25T07:01:10;102682.03;;;6.82;100.00
17855;BME280;9053;53.358;6.382;2024-01-25T07:03:41;102678.38;;;6.80;100.00
17855;BME280;9053;53.358;6.382;2024-01-25T07:06:15;102687.03;;;6.79;100.00
17855;BME280;9053;53.358;6.382;2024-01-25T07:08:45;102682.63;;;6.78;100.00
17855;BME280;9053;53.358;6.382;2024-01-25T07:11:21;102687.03;;;6.79;100.00
17855;BME280;9053;53.358;6.382;2024-01-25T07:13:52;102682.47;;;6.77;100.00
17855;BME280;9053;53.358;6.382;2024-01-25T07:16:22;102680.91;;;6.79;100.00
17855;BME280;9053;53.358;6.382;2024-01-25T07:18:54;102684.97;;;6.75;100.00
17855;BME280;9053;53.358;6.382;2024-01-25T07:21:24;102688.25;;;6.72;100.00
17855;BME280;9053;53.358;6.382;2024-01-25T07:23:54;102695.44;;;6.75;100.00
17855;BME280;9053;53.358;6.382;2024-01-25T07:26:27;102690.19;;;6.75;100.00
17855;BME280;9053;53.358;6.382;2024-01-25T07:28:57;102690.09;;;6.74;100.00
17855;BME280;9053;53.358;6.382;2024-01-25T07:31:27;102700.66;;;6.75;100.00
17855;BME280;9053;53.358;6.382;2024-01-25T07:33:58;102699.50;;;6.71;100.00
17855;BME280;9053;53.358;6.382;2024-01-25T07:36:28;102699.28;;;6.68;100.00
17855;BME280;9053;53.358;6.382;2024-01-25T07:38:59;102698.09;;;6.65;100.00
17855;BME280;9053;53.358;6.382;2024-01-25T07:41:32;102699.94;;;6.66;100.00
17855;BME280;9053;53.358;6.382;2024-01-25T07:44:04;102698.78;;;6.62;100.00
17855;BME280;9053;53.358;6.382;2024-01-25T07:46:37;102709.38;;;6.64;100.00
17855;BME280;9053;53.358;6.382;2024-01-25T07:49:07;102711.19;;;6.65;100.00
17855;BME280;9053;53.358;6.382;2024-01-25T07:51:37;102712.88;;;6.64;100.00
17855;BME280;9053;53.358;6.382;2024-01-25T07:54:07;102705.84;;;6.63;100.00
17855;BME280;9053;53.358;6.382;2024-01-25T07:56:39;102701.53;;;6.64;100.00
17855;BME280;9053;53.358;6.382;2024-01-25T07:59:09;102714.84;;;6.67;100.00
17855;BME280;9053;53.358;6.382;2024-01-25T08:01:39;102710.66;;;6.69;100.00
17855;BME280;9053;53.358;6.382;2024-01-25T08:04:10;102712.47;;;6.70;100.00
17855;BME280;9053;53.358;6.382;2024-01-25T08:06:40;102707.22;;;6.70;100.00
17855;BME280;9053;53.358;6.382;2024-01-25T08:09:10;102712.72;;;6.73;100.00
17855;BME280;9053;53.358;6.382;2024-01-25T08:11:44;102705.66;;;6.72;100.00
17855;BME280;9053;53.358;6.382;2024-01-25T08:14:14;102708.25;;;6.72;100.00
17855;BME280;9053;53.358;6.382;2024-01-25T08:16:56;102710.88;;;6.72;100.00
17855;BME280;9053;53.358;6.382;2024-01-25T08:19:28;102717.97;;;6.73;100.00
17855;BME280;9053;53.358;6.382;2024-01-25T08:21:59;102716.09;;;6.72;100.00
17855;BME280;9053;53.358;6.382;2024-01-25T08:24:29;102723.19;;;6.73;100.00
17855;BME280;9053;53.358;6.382;2024-01-25T08:27:01;102728.66;;;6.76;100.00
17855;BME280;9053;53.358;6.382;2024-01-25T08:29:31;102728.75;;;6.78;100.00
17855;BME280;9053;53.358;6.382;2024-01-25T08:32:03;102738.53;;;6.80;100.00
17855;BME280;9053;53.358;6.382;2024-01-25T08:34:44;102732.53;;;6.81;100.00
17855;BME280;9053;53.358;6.382;2024-01-25T08:37:17;102734.59;;;6.85;100.00
17855;BME280;9053;53.358;6.382;2024-01-25T08:39:48;102736.66;;;6.89;100.00
17855;BME280;9053;53.358;6.382;2024-01-25T08:42:20;102731.66;;;6.92;100.00
17855;BME280;9053;53.358;6.382;2024-01-25T08:45:04;102721.56;;;6.97;100.00
17855;BME280;9053;53.358;6.382;2024-01-25T08:47:47;102722.84;;;7.02;100.00
17855;BME280;9053;53.358;6.382;2024-01-25T08:50:18;102717.84;;;7.05;100.00
17855;BME280;9053;53.358;6.382;2024-01-25T08:52:56;102723.34;;;7.08;100.00
17855;BME280;9053;53.358;6.382;2024-01-25T08:55:28;102730.38;;;7.09;100.00
17855;BME280;9053;53.358;6.382;2024-01-25T08:58:04;102737.56;;;7.12;100.00
17855;BME280;9053;53.358;6.382;2024-01-25T09:00:34;102736.75;;;7.13;100.00
17855;BME280;9053;53.358;6.382;2024-01-25T09:03:06;102742.00;;;7.13;100.00
17855;BME280;9053;53.358;6.382;2024-01-25T09:05:39;102741.22;;;7.14;100.00
17855;BME280;9053;53.358;6.382;2024-01-25T09:08:17;102740.53;;;7.17;100.00
17855;BME280;9053;53.358;6.382;2024-01-25T09:10:56;102734.88;;;7.22;100.00
17855;BME280;9053;53.358;6.382;2024-01-25T09:13:29;102733.16;;;7.23;100.00
17855;BME280;9053;53.358;6.382;2024-01-25T09:16:10;102740.22;;;7.24;100.00
17855;BME280;9053;53.358;6.382;2024-01-25T09:18:40;102738.75;;;7.27;100.00
17855;BME280;9053;53.358;6.382;2024-01-25T09:21:11;102738.22;;;7.31;100.00
17855;BME280;9053;53.358;6.382;2024-01-25T09:23:41;102737.41;;;7.32;100.00
17855;BME280;9053;53.358;6.382;2024-01-25T09:26:11;102745.75;;;7.39;100.00
17855;BME280;9053;53.358;6.382;2024-01-25T09:28:44;102746.06;;;7.43;100.00
17855;BME280;9053;53.358;6.382;2024-01-25T09:31:14;102749.03;;;7.48;100.00
17855;BME280;9053;53.358;6.382;2024-01-25T09:33:44;102742.47;;;7.53;100.00
17855;BME280;9053;53.358;6.382;2024-01-25T09:36:16;102750.00;;;7.60;100.00
17855;BME280;9053;53.358;6.382;2024-01-25T09:38:46;102747.84;;;7.66;100.00
17855;BME280;9053;53.358;6.382;2024-01-25T09:41:16;102750.13;;;7.73;100.00
17855;BME280;9053;53.358;6.382;2024-01-25T09:43:50;102748.75;;;7.78;100.00
17855;BME280;9053;53.358;6.382;2024-01-25T09:46:22;102750.00;;;7.84;100.00
17855;BME280;9053;53.358;6.382;2024-01-25T09:48:53;102750.28;;;7.87;100.00
17855;BME280;9053;53.358;6.382;2024-01-25T09:51:23;102753.25;;;7.91;100.00
17855;BME280;9053;53.358;6.382;2024-01-25T09:53:54;102744.78;;;7.95;100.00
17855;BME280;9053;53.358;6.382;2024-01-25T09:56:30;102753.81;;;7.99;100.00
17855;BME280;9053;53.358;6.382;2024-01-25T09:59:03;102761.00;;;8.01;100.00
17855;BME280;9053;53.358;6.382;2024-01-25T10:01:34;102747.19;;;8.04;100.00
17855;BME280;9053;53.358;6.382;2024-01-25T10:04:06;102736.94;;;8.07;100.00
17855;BME280;9053;53.358;6.382;2024-01-25T10:06:36;102737.16;;;8.10;100.00
17855;BME280;9053;53.358;6.382;2024-01-25T10:09:08;102729.53;;;8.13;100.00
17855;BME280;9053;53.358;6.382;2024-01-25T10:11:41;102730.00;;;8.19;100.00
17855;BME280;9053;53.358;6.382;2024-01-25T10:14:23;102733.03;;;8.26;100.00
17855;BME280;9053;53.358;6.382;2024-01-25T10:16:52;102723.59;;;8.28;100.00
17855;BME280;9053;53.358;6.382;2024-01-25T10:19:25;102733.25;;;8.29;100.00
17855;BME280;9053;53.358;6.382;2024-01-25T10:21:56;102747.41;;;8.31;100.00
17855;BME280;9053;53.358;6.382;2024-01-25T10:24:27;102738.75;;;8.32;100.00
17855;BME280;9053;53.358;6.382;2024-01-25T10:26:57;102746.03;;;8.36;100.00
17855;BME280;9053;53.358;6.382;2024-01-25T10:29:31;102747.22;;;8.39;100.00
17855;BME280;9053;53.358;6.382;2024-01-25T10:32:03;102736.13;;;8.43;100.00
17855;BME280;9053;53.358;6.382;2024-01-25T10:34:35;102732.03;;;8.47;100.00
17855;BME280;9053;53.358;6.382;2024-01-25T10:37:06;102735.91;;;8.52;100.00
17855;BME280;9053;53.358;6.382;2024-01-25T10:39:37;102731.00;;;8.57;100.00
17855;BME280;9053;53.358;6.382;2024-01-25T10:42:08;102719.56;;;8.56;100.00
17855;BME280;9053;53.358;6.382;2024-01-25T10:44:42;102713.53;;;8.57;100.00
17855;BME280;9053;53.358;6.382;2024-01-25T10:47:12;102704.84;;;8.58;100.00
17855;BME280;9053;53.358;6.382;2024-01-25T10:49:43;102702.34;;;8.60;100.00
17855;BME280;9053;53.358;6.382;2024-01-25T10:52:16;102710.44;;;8.63;100.00
17855;BME280;9053;53.358;6.382;2024-01-25T10:54:47;102706.09;;;8.63;100.00
17855;BME280;9053;53.358;6.382;2024-01-25T10:57:17;102708.16;;;8.68;100.00
17855;BME280;9053;53.358;6.382;2024-01-25T10:59:49;102710.16;;;8.72;100.00
17855;BME280;9053;53.358;6.382;2024-01-25T11:02:19;102704.22;;;8.74;100.00
17855;BME280;9053;53.358;6.382;2024-01-25T11:04:53;102710.63;;;8.78;100.00
17855;BME280;9053;53.358;6.382;2024-01-25T11:07:52;102706.50;;;8.81;100.00
17855;BME280;9053;53.358;6.382;2024-01-25T11:10:35;102698.03;;;8.85;100.00
17855;BME280;9053;53.358;6.382;2024-01-25T11:13:14;102686.84;;;8.88;100.00
17855;BME280;9053;53.358;6.382;2024-01-25T11:15:46;102673.16;;;8.92;100.00
17855;BME280;9053;53.358;6.382;2024-01-25T11:18:16;102667.91;;;8.92;100.00
17855;BME280;9053;53.358;6.382;2024-01-25T11:20:47;102673.34;;;8.95;100.00
17855;BME280;9053;53.358;6.382;2024-01-25T11:23:18;102672.44;;;8.95;100.00
17855;BME280;9053;53.358;6.382;2024-01-25T11:26:04;102666.50;;;8.97;100.00
17855;BME280;9053;53.358;6.382;2024-01-25T11:28:38;102665.00;;;9.01;100.00
17855;BME280;9053;53.358;6.382;2024-01-25T11:31:12;102673.19;;;9.05;100.00
17855;BME280;9053;53.358;6.382;2024-01-25T11:33:42;102662.31;;;9.13;100.00
17855;BME280;9053;53.358;6.382;2024-01-25T11:36:12;102664.44;;;9.18;100.00
17855;BME280;9053;53.358;6.382;2024-01-25T11:38:42;102649.09;;;9.24;100.00
17855;BME280;9053;53.358;6.382;2024-01-25T11:41:12;102649.41;;;9.29;100.00
17855;BME280;9053;53.358;6.382;2024-01-25T11:43:43;102644.28;;;9.30;100.00
17855;BME280;9053;53.358;6.382;2024-01-25T11:46:17;102636.41;;;9.30;100.00
17855;BME280;9053;53.358;6.382;2024-01-25T11:48:47;102625.91;;;9.30;100.00
17855;BME280;9053;53.358;6.382;2024-01-25T11:51:18;102625.00;;;9.30;100.00
17855;BME280;9053;53.358;6.382;2024-01-25T11:53:48;102626.59;;;9.28;100.00
17855;BME280;9053;53.358;6.382;2024-01-25T11:56:20;102628.41;;;9.29;100.00
17855;BME280;9053;53.358;6.382;2024-01-25T11:58:51;102622.94;;;9.26;100.00
17855;BME280;9053;53.358;6.382;2024-01-25T12:01:27;102618.53;;;9.25;100.00
17855;BME280;9053;53.358;6.382;2024-01-25T12:03:58;102616.28;;;9.31;100.00
17855;BME280;9053;53.358;6.382;2024-01-25T12:06:28;102605.69;;;9.29;100.00
17855;BME280;9053;53.358;6.382;2024-01-25T12:09:07;102611.94;;;9.31;100.00
17855;BME280;9053;53.358;6.382;2024-01-25T12:11:40;102603.88;;;9.28;100.00
17855;BME280;9053;53.358;6.382;2024-01-25T12:14:10;102606.63;;;9.30;100.00
17855;BME280;9053;53.358;6.382;2024-01-25T12:16:43;102604.00;;;9.30;100.00
17855;BME280;9053;53.358;6.382;2024-01-25T12:19:14;102609.44;;;9.33;100.00
17855;BME280;9053;53.358;6.382;2024-01-25T12:21:45;102607.84;;;9.35;100.00
17855;BME280;9053;53.358;6.382;2024-01-25T12:24:15;102601.94;;;9.39;100.00
17855;BME280;9053;53.358;6.382;2024-01-25T12:26:45;102608.41;;;9.44;100.00
17855;BME280;9053;53.358;6.382;2024-01-25T12:29:17;102613.88;;;9.47;100.00
17855;BME280;9053;53.358;6.382;2024-01-25T12:31:49;102604.69;;;9.54;100.00
17855;BME280;9053;53.358;6.382;2024-01-25T12:34:19;102613.28;;;9.65;100.00
17855;BME280;9053;53.358;6.382;2024-01-25T12:36:49;102614.72;;;9.73;100.00
17855;BME280;9053;53.358;6.382;2024-01-25T12:39:20;102602.78;;;9.78;100.00
17855;BME280;9053;53.358;6.382;2024-01-25T12:41:50;102607.53;;;9.84;100.00
17855;BME280;9053;53.358;6.382;2024-01-25T12:44:20;102601.75;;;9.89;100.00
17855;BME280;9053;53.358;6.382;2024-01-25T12:46:54;102596.66;;;9.92;100.00
17855;BME280;9053;53.358;6.382;2024-01-25T12:49:28;102594.28;;;9.95;100.00
17855;BME280;9053;53.358;6.382;2024-01-25T12:51:58;102595.53;;;10.02;100.00
17855;BME280;9053;53.358;6.382;2024-01-25T12:54:28;102589.50;;;10.03;100.00
17855;BME280;9053;53.358;6.382;2024-01-25T12:56:58;102585.84;;;10.01;100.00
17855;BME280;9053;53.358;6.382;2024-01-25T12:59:29;102587.66;;;10.02;100.00
17855;BME280;9053;53.358;6.382;2024-01-25T13:02:01;102585.03;;;10.02;100.00
17855;BME280;9053;53.358;6.382;2024-01-25T13:04:31;102583.31;;;10.03;100.00
17855;BME280;9053;53.358;6.382;2024-01-25T13:07:02;102587.78;;;10.04;100.00
17855;BME280;9053;53.358;6.382;2024-01-25T13:09:32;102575.41;;;10.03;100.00
17855;BME280;9053;53.358;6.382;2024-01-25T13:12:04;102583.41;;;10.04;100.00
17855;BME280;9053;53.358;6.382;2024-01-25T13:14:34;102577.16;;;10.02;100.00
17855;BME280;9053;53.358;6.382;2024-01-25T13:17:06;102579.88;;;10.04;100.00
17855;BME280;9053;53.358;6.382;2024-01-25T13:19:37;102581.63;;;10.03;100.00
17855;BME280;9053;53.358;6.382;2024-01-25T13:22:07;102584.13;;;10.02;100.00
17855;BME280;9053;53.358;6.382;2024-01-25T13:24:36;102578.16;;;10.04;100.00